createdAt,value
2022-08-05T00:00:01.217Z,26.80
2022-08-05T00:02:29.205Z,26.80
2022-08-05T00:04:57.739Z,26.70
2022-08-05T00:07:59.231Z,26.70
2022-08-05T00:10:14.406Z,26.70
2022-08-05T00:12:56.459Z,26.70
2022-08-05T00:15:55.249Z,26.60
2022-08-05T00:18:21.440Z,26.50
2022-08-05T00:20:49.916Z,26.50
2022-08-05T00:23:17.892Z,26.50
2022-08-05T00:26:06.692Z,26.50
2022-08-05T00:28:35.105Z,26.50
2022-08-05T00:31:07.527Z,26.50
2022-08-05T00:34:55.636Z,26.50
2022-08-05T00:37:09.065Z,26.50
2022-08-05T00:39:13.732Z,26.40
2022-08-05T00:41:55.038Z,26.40
2022-08-05T00:44:30.637Z,26.30
2022-08-05T00:47:03.750Z,26.30
2022-08-05T00:49:50.979Z,26.30
2022-08-05T00:52:28.743Z,26.30
2022-08-05T00:54:57.235Z,26.30
2022-08-05T00:57:31.769Z,26.30
2022-08-05T01:00:10.993Z,26.30
2022-08-05T01:02:40.596Z,26.30
2022-08-05T01:05:10.068Z,26.30
2022-08-05T01:07:38.264Z,26.20
2022-08-05T01:10:30.477Z,26.20
2022-08-05T01:13:13.411Z,26.10
2022-08-05T01:15:57.594Z,26.00
2022-08-05T01:18:32.663Z,26.00
2022-08-05T01:21:09.512Z,25.90
2022-08-05T01:24:01.557Z,25.90
2022-08-05T01:26:49.626Z,25.80
2022-08-05T01:29:26.005Z,25.80
2022-08-05T01:32:03.598Z,25.80
2022-08-05T01:34:35.998Z,25.70
2022-08-05T01:37:09.030Z,25.70
2022-08-05T01:39:46.728Z,25.70
2022-08-05T01:42:20.455Z,25.60
2022-08-05T01:44:54.253Z,25.60
2022-08-05T01:47:32.533Z,25.60
2022-08-05T01:50:15.556Z,25.60
2022-08-05T01:52:49.643Z,25.60
2022-08-05T01:55:21.532Z,25.50
2022-08-05T01:58:29.946Z,25.50
2022-08-05T02:00:44.139Z,25.50
2022-08-05T02:03:28.936Z,25.50
2022-08-05T02:06:03.434Z,25.40
2022-08-05T02:08:55.030Z,25.40
2022-08-05T02:11:33.494Z,25.40
2022-08-05T02:14:06.249Z,25.40
2022-08-05T02:16:44.023Z,25.40
2022-08-05T02:19:19.822Z,25.40
2022-08-05T02:21:59.299Z,25.40
2022-08-05T02:24:32.942Z,25.40
2022-08-05T02:27:10.040Z,25.40
2022-08-05T02:29:58.451Z,25.40
2022-08-05T02:32:31.679Z,25.40
2022-08-05T02:35:13.543Z,25.40
2022-08-05T02:37:47.891Z,25.50
2022-08-05T02:40:24.130Z,25.40
2022-08-05T02:42:54.258Z,25.50
2022-08-05T02:45:24.085Z,25.50
2022-08-05T02:48:06.537Z,25.50
2022-08-05T02:50:38.387Z,25.50
2022-08-05T02:53:19.095Z,25.50
2022-08-05T02:55:53.896Z,25.50
2022-08-05T02:58:26.801Z,25.60
2022-08-05T03:00:57.615Z,25.60
2022-08-05T03:03:34.211Z,25.60
2022-08-05T03:06:54.659Z,25.60
2022-08-05T03:09:07.740Z,25.60
2022-08-05T03:11:55.382Z,25.60
2022-08-05T03:14:23.761Z,25.60
2022-08-05T03:16:51.791Z,25.60
2022-08-05T03:19:34.245Z,25.50
2022-08-05T03:22:04.984Z,25.50
2022-08-05T03:24:47.218Z,25.50
2022-08-05T03:27:19.159Z,25.40
2022-08-05T03:30:07.208Z,25.40
2022-08-05T03:32:35.906Z,25.40
2022-08-05T03:35:06.730Z,25.30
2022-08-05T03:37:45.967Z,25.30
2022-08-05T03:40:15.284Z,25.30
2022-08-05T03:42:52.514Z,25.30
2022-08-05T03:45:23.060Z,25.20
2022-08-05T03:47:57.122Z,25.20
2022-08-05T03:50:36.622Z,25.10
2022-08-05T03:55:53.868Z,25.10
2022-08-05T03:56:17.114Z,25.10
2022-08-05T03:58:51.864Z,25.10
2022-08-05T04:01:22.076Z,25.10
2022-08-05T04:04:09.795Z,25.10
2022-08-05T04:06:47.787Z,25.10
2022-08-05T04:09:25.849Z,25.10
2022-08-05T04:11:56.694Z,25.00
2022-08-05T04:14:30.421Z,25.00
2022-08-05T04:16:59.776Z,25.00
2022-08-05T04:19:28.837Z,25.00
2022-08-05T04:22:08.930Z,24.90
2022-08-05T04:24:44.603Z,24.90
2022-08-05T04:27:33.301Z,24.90
2022-08-05T04:30:10.199Z,24.90
2022-08-05T04:32:39.081Z,24.80
2022-08-05T04:35:17.754Z,24.80
2022-08-05T04:38:02.554Z,24.80
2022-08-05T04:40:35.640Z,24.80
2022-08-05T04:43:03.834Z,24.80
2022-08-05T04:45:47.927Z,24.70
2022-08-05T04:48:21.379Z,24.80
2022-08-05T04:51:03.365Z,24.80
2022-08-05T04:53:40.748Z,24.80
2022-08-05T04:56:33.365Z,24.80
2022-08-05T04:58:57.793Z,24.90
2022-08-05T05:02:06.396Z,24.90
2022-08-05T05:04:14.548Z,24.90
2022-08-05T05:06:44.632Z,24.90
2022-08-05T05:09:18.780Z,25.00
2022-08-05T05:11:54.331Z,25.00
2022-08-05T05:14:31.378Z,25.00
2022-08-05T05:17:00.295Z,25.00
2022-08-05T05:19:37.029Z,25.00
2022-08-05T05:22:24.515Z,25.10
2022-08-05T05:24:58.829Z,25.00
2022-08-05T05:27:45.741Z,25.10
2022-08-05T05:30:30.991Z,25.10
2022-08-05T05:33:16.226Z,25.10
2022-08-05T05:35:46.831Z,25.10
2022-08-05T05:38:22.243Z,25.00
2022-08-05T05:40:56.948Z,25.00
2022-08-05T05:43:54.383Z,25.00
2022-08-05T05:46:15.972Z,25.00
2022-08-05T05:48:44.822Z,25.00
2022-08-05T05:51:19.843Z,25.00
2022-08-05T05:53:57.883Z,25.00
2022-08-05T05:56:32.562Z,25.00
2022-08-05T05:59:05.594Z,25.00
2022-08-05T06:01:37.519Z,25.10
2022-08-05T06:04:08.463Z,25.10
2022-08-05T06:06:41.937Z,25.10
2022-08-05T06:09:17.711Z,25.20
2022-08-05T06:12:01.658Z,25.30
2022-08-05T06:14:30.867Z,25.30
2022-08-05T06:16:59.396Z,25.30
2022-08-05T06:19:34.586Z,25.40
2022-08-05T06:22:03.921Z,25.40
2022-08-05T06:24:31.879Z,25.60
2022-08-05T06:27:01.181Z,25.60
2022-08-05T06:29:51.968Z,25.60
2022-08-05T06:32:25.446Z,25.70
2022-08-05T06:34:56.810Z,25.80
2022-08-05T06:37:55.570Z,25.90
2022-08-05T06:40:20.770Z,25.80
2022-08-05T06:42:51.858Z,25.90
2022-08-05T06:45:45.070Z,26.00
2022-08-05T06:48:37.045Z,26.00
2022-08-05T06:50:58.047Z,26.00
2022-08-05T06:53:28.516Z,26.10
2022-08-05T06:55:57.258Z,26.20
2022-08-05T06:58:35.483Z,26.20
2022-08-05T07:01:06.970Z,26.30
2022-08-05T07:03:35.736Z,26.30
2022-08-05T07:06:05.955Z,26.30
2022-08-05T07:08:42.754Z,26.40
2022-08-05T07:11:15.473Z,26.50
2022-08-05T07:14:02.752Z,26.50
2022-08-05T07:17:59.395Z,26.50
2022-08-05T07:22:29.171Z,26.70
2022-08-05T07:24:59.269Z,26.80
2022-08-05T07:27:57.566Z,26.80
2022-08-05T07:30:28.015Z,26.90
2022-08-05T07:32:58.902Z,26.90
2022-08-05T07:36:02.191Z,27.00
2022-08-05T07:38:32.957Z,27.10
2022-08-05T07:41:16.757Z,27.20
2022-08-05T07:43:52.508Z,27.20
2022-08-05T07:46:25.100Z,27.30
2022-08-05T07:49:03.633Z,27.40
2022-08-05T07:51:48.719Z,27.40
2022-08-05T07:54:31.699Z,27.50
2022-08-05T07:57:22.694Z,27.50
2022-08-05T07:59:51.080Z,27.60
2022-08-05T08:02:26.523Z,27.60
2022-08-05T08:04:55.455Z,27.60
2022-08-05T08:07:24.359Z,27.70
2022-08-05T08:09:56.562Z,27.70
2022-08-05T08:12:35.332Z,27.80
2022-08-05T08:15:15.307Z,27.80
2022-08-05T08:17:52.714Z,27.80
2022-08-05T08:20:45.403Z,27.90
2022-08-05T08:24:00.457Z,28.00
2022-08-05T08:26:00.928Z,28.30
2022-08-05T08:28:37.169Z,28.80
2022-08-05T08:31:18.525Z,29.30
2022-08-05T08:33:51.585Z,29.90
2022-08-05T08:36:38.557Z,30.40
2022-08-05T08:39:15.660Z,30.70
2022-08-05T08:41:52.067Z,30.90
2022-08-05T08:45:19.857Z,31.00
2022-08-05T08:48:06.618Z,31.10
2022-08-05T08:50:31.119Z,31.20
2022-08-05T08:53:08.104Z,31.30
2022-08-05T08:56:04.116Z,31.40
2022-08-05T08:58:37.633Z,31.60
2022-08-05T09:01:15.870Z,31.70
2022-08-05T09:03:46.925Z,31.80
2022-08-05T09:06:21.093Z,32.00
2022-08-05T09:08:49.495Z,32.20
2022-08-05T09:11:17.510Z,32.40
2022-08-05T09:14:54.464Z,32.50
2022-08-05T09:16:54.008Z,32.80
2022-08-05T09:19:27.693Z,32.90
2022-08-05T09:22:23.235Z,33.10
2022-08-05T09:24:59.425Z,33.20
2022-08-05T09:28:04.307Z,33.30
2022-08-05T09:30:23.420Z,33.50
2022-08-05T09:32:53.542Z,33.60
2022-08-05T09:35:27.048Z,33.70
2022-08-05T09:38:17.423Z,33.90
2022-08-05T09:40:53.898Z,33.90
2022-08-05T09:43:42.184Z,34.00
2022-08-05T09:46:27.823Z,34.10
2022-08-05T09:49:07.722Z,34.20
2022-08-05T09:51:50.016Z,34.20
2022-08-05T09:54:31.991Z,34.10
2022-08-05T09:57:01.571Z,34.10
2022-08-05T09:59:35.195Z,34.20
2022-08-05T10:02:05.488Z,34.30
2022-08-05T10:04:38.575Z,34.50
2022-08-05T10:07:20.970Z,34.70
2022-08-05T10:10:14.480Z,34.70
2022-08-05T10:12:49.390Z,34.80
2022-08-05T10:15:23.343Z,35.00
2022-08-05T10:18:11.859Z,35.20
2022-08-05T10:20:44.193Z,35.10
2022-08-05T10:23:34.431Z,35.10
2022-08-05T10:26:14.204Z,35.00
2022-08-05T10:28:43.532Z,34.90
2022-08-05T10:32:47.137Z,34.90
2022-08-05T10:34:02.358Z,35.10
2022-08-05T10:36:31.231Z,35.20
2022-08-05T10:39:10.012Z,35.20
2022-08-05T10:41:47.355Z,35.30
2022-08-05T10:44:19.395Z,35.40
2022-08-05T10:46:54.364Z,35.40
2022-08-05T10:49:27.373Z,35.50
2022-08-05T10:52:03.247Z,35.60
2022-08-05T10:54:56.168Z,35.70
2022-08-05T10:57:33.633Z,35.80
2022-08-05T11:00:17.862Z,35.90
2022-08-05T11:03:24.750Z,35.90
2022-08-05T11:06:21.311Z,35.90
2022-08-05T11:09:45.122Z,35.90
2022-08-05T11:12:50.738Z,36.00
2022-08-05T11:15:59.099Z,36.20
2022-08-05T11:18:30.184Z,36.20
2022-08-05T11:21:02.068Z,36.30
2022-08-05T11:24:05.470Z,36.40
2022-08-05T11:26:28.627Z,36.40
2022-08-05T11:29:11.631Z,36.40
2022-08-05T11:31:58.023Z,36.50
2022-08-05T11:34:39.558Z,36.60
2022-08-05T11:38:30.297Z,36.60
2022-08-05T11:40:02.980Z,36.70
2022-08-05T11:42:38.121Z,36.70
2022-08-05T11:45:14.364Z,36.80
2022-08-05T11:47:55.281Z,36.80
2022-08-05T11:50:23.606Z,36.90
2022-08-05T11:52:57.760Z,37.00
2022-08-05T11:55:31.824Z,37.00
2022-08-05T11:58:10.760Z,37.10
2022-08-05T12:00:44.495Z,37.00
2022-08-05T12:03:28.428Z,37.00
2022-08-05T12:06:01.854Z,37.10
2022-08-05T12:08:31.535Z,37.10
2022-08-05T12:11:04.071Z,37.20
2022-08-05T12:13:48.790Z,37.20
2022-08-05T12:16:25.374Z,37.20
2022-08-05T12:18:55.768Z,37.20
2022-08-05T12:21:26.800Z,37.00
2022-08-05T12:24:04.358Z,37.00
2022-08-05T12:26:34.287Z,37.10
2022-08-05T12:29:03.346Z,37.10
2022-08-05T12:31:45.954Z,37.20
2022-08-05T12:34:20.680Z,37.30
2022-08-05T12:36:50.946Z,37.30
2022-08-05T12:39:20.157Z,37.30
2022-08-05T12:41:48.679Z,37.30
2022-08-05T12:44:21.679Z,37.30
2022-08-05T12:47:03.881Z,37.30
2022-08-05T12:50:04.936Z,37.40
2022-08-05T12:52:38.000Z,37.40
2022-08-05T12:55:22.494Z,37.40
2022-08-05T12:58:49.460Z,37.40
2022-08-05T13:02:02.133Z,37.30
2022-08-05T13:03:42.506Z,37.30
2022-08-05T13:06:16.592Z,37.20
2022-08-05T13:08:51.545Z,37.20
2022-08-05T13:11:59.760Z,37.20
2022-08-05T13:14:35.951Z,37.20
2022-08-05T13:17:09.748Z,37.30
2022-08-05T13:19:50.946Z,37.30
2022-08-05T13:22:28.048Z,37.30
2022-08-05T13:25:00.842Z,37.30
2022-08-05T13:27:37.550Z,37.20
2022-08-05T13:30:34.786Z,37.10
2022-08-05T13:32:56.727Z,37.10
2022-08-05T13:35:42.850Z,37.00
2022-08-05T13:38:28.203Z,37.00
2022-08-05T13:41:00.078Z,37.00
2022-08-05T13:43:44.366Z,37.10
2022-08-05T13:46:35.757Z,37.20
2022-08-05T13:49:09.883Z,37.30
2022-08-05T13:51:46.729Z,37.30
2022-08-05T13:54:16.545Z,37.40
2022-08-05T13:56:50.876Z,37.50
2022-08-05T13:59:21.354Z,37.50
2022-08-05T14:01:58.978Z,37.40
2022-08-05T14:04:49.574Z,37.40
2022-08-05T14:07:26.322Z,37.30
2022-08-05T14:10:11.053Z,37.30
2022-08-05T14:12:39.288Z,37.30
2022-08-05T14:16:08.602Z,37.40
2022-08-05T14:17:59.503Z,37.40
2022-08-05T14:20:27.934Z,37.40
2022-08-05T14:22:57.476Z,37.30
2022-08-05T14:25:28.239Z,37.30
2022-08-05T14:27:58.650Z,37.30
2022-08-05T14:30:28.185Z,37.10
2022-08-05T14:32:56.746Z,36.90
2022-08-05T14:35:37.477Z,36.70
2022-08-05T14:38:27.697Z,36.60
2022-08-05T14:41:00.862Z,36.50
2022-08-05T14:44:02.245Z,36.20
2022-08-05T14:46:16.804Z,35.80
2022-08-05T14:48:44.809Z,35.50
2022-08-05T14:51:18.076Z,35.10
2022-08-05T14:54:25.944Z,34.80
2022-08-05T14:56:44.055Z,34.50
2022-08-05T14:59:13.868Z,34.30
2022-08-05T15:01:48.373Z,34.00
2022-08-05T15:04:17.485Z,33.80
2022-08-05T15:06:49.884Z,33.60
2022-08-05T15:09:51.999Z,33.50
2022-08-05T15:12:09.089Z,33.30
2022-08-05T15:14:42.259Z,33.10
2022-08-05T15:17:45.961Z,33.00
2022-08-05T15:20:07.575Z,32.90
2022-08-05T15:22:38.163Z,32.80
2022-08-05T15:25:13.727Z,32.70
2022-08-05T15:27:42.971Z,32.70
2022-08-05T15:30:20.433Z,32.60
2022-08-05T15:32:50.536Z,32.50
2022-08-05T15:35:18.639Z,32.40
2022-08-05T15:38:34.951Z,32.40
2022-08-05T15:41:03.885Z,32.40
2022-08-05T15:43:27.570Z,32.30
2022-08-05T15:46:00.303Z,32.30
2022-08-05T15:48:29.806Z,32.20
2022-08-05T15:50:58.233Z,32.20
2022-08-05T15:53:37.815Z,32.30
2022-08-05T15:56:14.035Z,32.20
2022-08-05T15:58:43.485Z,32.20
2022-08-05T16:01:16.142Z,32.10
2022-08-05T16:03:48.368Z,32.00
2022-08-05T16:06:19.973Z,32.00
2022-08-05T16:08:51.176Z,32.00
2022-08-05T16:11:40.085Z,31.90
2022-08-05T16:14:08.972Z,31.90
2022-08-05T16:16:37.266Z,31.80
2022-08-05T16:19:06.491Z,31.80
2022-08-05T16:21:58.645Z,31.70
2022-08-05T16:24:39.615Z,31.70
2022-08-05T16:27:15.834Z,31.60
2022-08-05T16:29:50.468Z,31.50
2022-08-05T16:32:28.764Z,31.40
2022-08-05T16:34:58.701Z,31.30
2022-08-05T16:38:02.700Z,31.20
2022-08-05T16:40:26.576Z,31.20
2022-08-05T16:42:58.373Z,31.20
2022-08-05T16:46:04.549Z,31.30
2022-08-05T16:48:25.137Z,31.20
2022-08-05T16:50:53.744Z,31.20
2022-08-05T16:53:32.443Z,31.20
2022-08-05T16:56:11.782Z,31.20
2022-08-05T16:58:41.742Z,31.10
2022-08-05T17:01:10.579Z,31.10
2022-08-05T17:03:38.992Z,31.00
2022-08-05T17:06:07.549Z,30.90
2022-08-05T17:08:53.543Z,30.90
2022-08-05T17:11:23.322Z,30.80
2022-08-05T17:14:05.248Z,30.70
2022-08-05T17:16:36.750Z,30.70
2022-08-05T17:19:07.341Z,30.60
2022-08-05T17:21:39.423Z,30.50
2022-08-05T17:24:19.689Z,30.50
2022-08-05T17:26:57.605Z,30.50
2022-08-05T17:29:33.288Z,30.40
2022-08-05T17:32:11.127Z,30.50
2022-08-05T17:34:40.085Z,30.40
2022-08-05T17:37:27.314Z,30.30
2022-08-05T17:39:59.841Z,30.30
2022-08-05T17:42:29.844Z,30.20
2022-08-05T17:45:09.924Z,30.20
2022-08-05T17:47:54.057Z,30.10
2022-08-05T17:50:29.045Z,30.00
2022-08-05T17:52:59.842Z,30.00
2022-08-05T17:55:37.294Z,29.90
2022-08-05T17:58:09.355Z,29.80
2022-08-05T18:00:44.580Z,29.70
2022-08-05T18:06:06.275Z,29.60
2022-08-05T18:08:40.519Z,29.50
2022-08-05T18:11:24.199Z,29.50
2022-08-05T18:14:00.658Z,29.40
2022-08-05T18:16:33.132Z,29.40
2022-08-05T18:19:01.080Z,29.40
2022-08-05T18:22:07.592Z,29.30
2022-08-05T18:24:17.114Z,29.20
2022-08-05T18:26:45.710Z,29.20
2022-08-05T18:29:16.879Z,29.10
2022-08-05T18:31:46.668Z,29.10
2022-08-05T18:34:17.729Z,29.10
2022-08-05T18:36:49.809Z,29.10
2022-08-05T18:39:42.556Z,29.00
2022-08-05T18:42:10.787Z,29.00
2022-08-05T18:44:49.368Z,29.00
2022-08-05T18:47:26.561Z,28.90
2022-08-05T18:50:13.108Z,28.90
2022-08-05T18:52:51.250Z,29.00
2022-08-05T18:55:21.470Z,29.30
2022-08-05T18:57:54.020Z,29.60
2022-08-05T19:00:31.132Z,29.90
2022-08-05T19:03:04.749Z,30.10
2022-08-05T19:06:11.605Z,30.30
2022-08-05T19:08:30.967Z,30.50
2022-08-05T19:11:02.739Z,30.70
2022-08-05T19:13:36.206Z,30.70
2022-08-05T19:16:25.163Z,30.70
2022-08-05T19:18:56.488Z,30.70
2022-08-05T19:21:26.077Z,30.70
2022-08-05T19:24:07.615Z,30.60
2022-08-05T19:26:54.820Z,30.60
2022-08-05T19:29:26.748Z,30.60
2022-08-05T19:32:04.531Z,30.50
2022-08-05T19:34:34.015Z,30.40
2022-08-05T19:37:02.027Z,30.40
2022-08-05T19:39:30.501Z,30.40
2022-08-05T19:42:07.185Z,30.30
2022-08-05T19:44:45.159Z,30.30
2022-08-05T19:47:15.286Z,30.30
2022-08-05T19:49:46.045Z,30.30
2022-08-05T19:52:30.702Z,30.30
2022-08-05T19:55:07.261Z,30.20
2022-08-05T19:58:10.364Z,30.20
2022-08-05T20:00:37.821Z,30.10
2022-08-05T20:03:08.965Z,30.00
2022-08-05T20:05:43.122Z,30.00
2022-08-05T20:08:18.464Z,29.90
2022-08-05T20:10:49.704Z,29.90
2022-08-05T20:13:29.867Z,29.90
2022-08-05T20:16:06.799Z,29.80
2022-08-05T20:18:36.175Z,29.70
2022-08-05T20:21:07.030Z,29.70
2022-08-05T20:23:40.715Z,29.70
2022-08-05T20:26:19.922Z,29.70
2022-08-05T20:28:50.219Z,29.60
2022-08-05T20:31:21.676Z,29.60
2022-08-05T20:33:51.460Z,29.60
2022-08-05T20:36:22.443Z,29.50
2022-08-05T20:38:53.567Z,29.50
2022-08-05T20:41:27.506Z,29.40
2022-08-05T20:44:17.609Z,29.30
2022-08-05T20:46:58.692Z,29.10
2022-08-05T20:49:26.708Z,28.80
2022-08-05T20:51:57.517Z,28.50
2022-08-05T20:54:43.463Z,28.30
2022-08-05T20:57:15.099Z,28.00
2022-08-05T21:00:21.467Z,27.80
2022-08-05T21:02:55.436Z,27.70
2022-08-05T21:05:25.119Z,27.50
2022-08-05T21:07:54.468Z,27.40
2022-08-05T21:10:24.059Z,27.40
2022-08-05T21:12:58.178Z,27.30
2022-08-05T21:15:39.290Z,27.10
2022-08-05T21:18:07.278Z,27.00
2022-08-05T21:20:35.211Z,26.90
2022-08-05T21:23:05.304Z,26.80
2022-08-05T21:25:34.419Z,26.70
2022-08-05T21:28:03.785Z,26.50
2022-08-05T21:30:32.201Z,26.40
2022-08-05T21:33:01.819Z,26.40
2022-08-05T21:35:55.506Z,26.30
2022-08-05T21:38:20.326Z,26.20
2022-08-05T21:40:48.314Z,26.10
2022-08-05T21:43:24.808Z,26.10
2022-08-05T21:45:57.360Z,26.10
2022-08-05T21:48:28.340Z,26.10
2022-08-05T21:50:57.380Z,26.00
2022-08-05T21:53:27.495Z,26.00
2022-08-05T21:56:05.544Z,26.00
2022-08-05T21:58:57.037Z,26.00
2022-08-05T22:01:26.648Z,26.00
2022-08-05T22:03:55.251Z,26.00
2022-08-05T22:06:39.669Z,26.00
2022-08-05T22:09:14.865Z,26.00
2022-08-05T22:11:46.938Z,26.00
2022-08-05T22:14:33.427Z,25.90
2022-08-05T22:17:07.108Z,25.90
2022-08-05T22:20:00.358Z,25.80
2022-08-05T22:22:27.887Z,25.80
2022-08-05T22:26:09.082Z,25.80
2022-08-05T22:28:18.939Z,25.80
2022-08-05T22:30:56.753Z,25.80
2022-08-05T22:33:56.668Z,25.80
2022-08-05T22:36:15.290Z,25.80
2022-08-05T22:38:48.504Z,25.70
2022-08-05T22:42:05.019Z,25.70
2022-08-05T22:44:07.672Z,25.70
2022-08-05T22:46:39.451Z,25.60
2022-08-05T22:49:12.228Z,25.60
2022-08-05T22:52:04.579Z,25.60
2022-08-05T22:54:34.892Z,25.60
2022-08-05T22:57:04.569Z,25.50
2022-08-05T22:59:48.305Z,25.50
2022-08-05T23:02:28.878Z,25.50
2022-08-05T23:04:58.135Z,25.40
2022-08-05T23:07:30.456Z,25.40
2022-08-05T23:10:01.569Z,25.30
2022-08-05T23:12:32.750Z,25.30
2022-08-05T23:15:03.363Z,25.20
2022-08-05T23:17:32.615Z,25.20
2022-08-05T23:20:16.313Z,25.10
2022-08-05T23:22:47.349Z,25.00
2022-08-05T23:25:52.477Z,25.00
2022-08-05T23:28:07.884Z,25.00
2022-08-05T23:30:40.625Z,24.90
2022-08-05T23:33:15.940Z,24.90
2022-08-05T23:35:50.138Z,24.90
2022-08-05T23:38:18.282Z,24.80
2022-08-05T23:40:49.843Z,24.80
2022-08-05T23:43:25.369Z,24.80
2022-08-05T23:46:20.004Z,24.80
2022-08-05T23:49:00.490Z,24.70
2022-08-05T23:51:54.107Z,24.70
2022-08-05T23:54:26.109Z,24.70
2022-08-05T23:56:55.369Z,24.70
2022-08-05T23:59:27.837Z,24.70
